Time;durP1;ratioP1;P1;durP2;ratioP2;P2;SDS_P1;SDS_P2;PMS_P1;PMS_P2;Temp;Humidity;BMP_temperature;BMP_pressure;BME280_temperature;BME280_humidity;BME280_pressure;Samples;Min_cycle;Max_cycle;Signal;HPM_P1;HPM_P2
2024/02/10 00:02:10;;;;;;;10.73;2.53;;;11.60;99.90;;;;;;5095045;28;20456;-53
2024/02/10 00:04:38;;;;;;;3.90;2.70;;;11.60;99.90;;;;;;5111807;28;20020;-55
2024/02/10 00:07:07;;;;;;;6.18;2.40;;;11.60;99.90;;;;;;5104668;27;20496;-54
2024/02/10 00:09:35;;;;;;;7.85;2.63;;;11.60;99.90;;;;;;5109622;28;20380;-52
2024/02/10 00:12:01;;;;;;;7.03;2.38;;;11.50;99.90;;;;;;5093436;28;20027;-55
2024/02/10 00:14:27;;;;;;;5.43;2.92;;;11.60;99.90;;;;;;5094525;28;20150;-53
2024/02/10 00:16:53;;;;;;;4.20;3.08;;;11.60;99.90;;;;;;5097993;28;20099;-54
2024/02/10 00:19:20;;;;;;;2.97;2.03;;;11.60;99.90;;;;;;5094564;28;20474;-55
2024/02/10 00:21:46;;;;;;;11.13;2.60;;;11.50;99.90;;;;;;5094393;28;20024;-54
2024/02/10 00:24:12;;;;;;;4.60;2.30;;;11.50;99.90;;;;;;5094395;28;20270;-54
2024/02/10 00:26:38;;;;;;;5.07;2.63;;;11.60;99.90;;;;;;5094735;28;20464;-53
2024/02/10 00:29:05;;;;;;;10.45;2.63;;;11.60;99.90;;;;;;5094534;28;20050;-54
2024/02/10 00:31:31;;;;;;;10.70;2.53;;;11.50;99.90;;;;;;5096333;28;20031;-52
2024/02/10 00:33:57;;;;;;;13.13;2.63;;;11.60;99.90;;;;;;5114469;28;20019;-56
2024/02/10 00:36:24;;;;;;;11.73;2.83;;;11.50;99.90;;;;;;5112328;28;20043;-53
2024/02/10 00:38:50;;;;;;;6.27;3.93;;;11.50;99.90;;;;;;5107089;28;20393;-53
2024/02/10 00:41:16;;;;;;;6.13;2.60;;;11.50;99.90;;;;;;5094020;28;20262;-56
2024/02/10 00:43:43;;;;;;;3.33;1.80;;;11.50;99.90;;;;;;5093980;28;20020;-55
2024/02/10 00:46:15;;;;;;;9.82;3.33;;;11.50;99.90;;;;;;5096782;28;20044;-54
2024/02/10 00:48:47;;;;;;;5.13;2.40;;;11.30;99.90;;;;;;5114453;28;20287;-54
2024/02/10 00:51:13;;;;;;;12.35;2.10;;;11.40;99.90;;;;;;5113362;28;20110;-54
2024/02/10 00:53:42;;;;;;;8.57;2.40;;;11.30;99.90;;;;;;5111332;28;20544;-54
2024/02/10 00:56:09;;;;;;;6.35;1.92;;;11.40;99.90;;;;;;5093716;28;20016;-55
2024/02/10 00:58:40;;;;;;;4.95;2.33;;;11.40;99.90;;;;;;5093718;28;20016;-55
2024/02/10 01:01:12;;;;;;;7.80;2.60;;;11.40;99.90;;;;;;5105461;28;20388;-55
2024/02/10 01:03:45;;;;;;;4.78;2.15;;;11.40;99.90;;;;;;5113963;28;20540;-54
2024/02/10 01:06:16;;;;;;;13.65;2.42;;;11.40;99.90;;;;;;5101340;28;20032;-52
2024/02/10 01:08:48;;;;;;;6.35;2.80;;;11.40;99.90;;;;;;5113925;28;20075;-53
2024/02/10 01:11:19;;;;;;;8.70;2.63;;;11.50;99.90;;;;;;5113043;28;20042;-54
2024/02/10 01:13:45;;;;;;;3.85;2.47;;;11.40;99.90;;;;;;5105564;28;20469;-52
2024/02/10 01:16:15;;;;;;;7.45;2.20;;;11.40;99.90;;;;;;5093447;28;20030;-51
2024/02/10 01:18:42;;;;;;;11.23;3.47;;;11.40;99.90;;;;;;5094628;28;20024;-54
2024/02/10 01:21:09;;;;;;;8.48;3.05;;;11.40;99.90;;;;;;5107693;28;20024;-52
2024/02/10 01:23:39;;;;;;;4.88;2.20;;;11.30;99.90;;;;;;5112035;28;20023;-57
2024/02/10 01:26:17;;;;;;;11.40;2.63;;;11.30;99.90;;;;;;5111892;28;20027;-54
2024/02/10 01:28:44;;;;;;;;;;;11.40;99.90;;;;;;5112433;28;20046;-56
2024/02/10 01:31:12;;;;;;;8.18;2.60;;;11.40;99.90;;;;;;5113467;28;19911;-53
2024/02/10 01:33:41;;;;;;;4.75;2.67;;;11.40;99.90;;;;;;5113405;28;20024;-53
2024/02/10 01:36:09;;;;;;;4.05;2.72;;;11.40;99.90;;;;;;5094907;28;20040;-56
2024/02/10 01:38:42;;;;;;;;;;;11.30;99.90;;;;;;5093838;28;20496;-52
2024/02/10 01:41:12;;;;;;;8.73;3.20;;;11.30;99.90;;;;;;5091834;28;19994;-51
2024/02/10 01:43:38;;;;;;;10.40;2.78;;;11.40;99.90;;;;;;5091787;28;20438;-53
2024/02/10 01:46:14;;;;;;;6.97;3.10;;;11.40;99.90;;;;;;5092990;28;20491;-54
2024/02/10 01:48:41;;;;;;;10.95;2.92;;;11.30;99.90;;;;;;5092977;28;20063;-52
2024/02/10 01:51:08;;;;;;;6.50;2.10;;;11.30;99.90;;;;;;5093091;28;20070;-54
2024/02/10 01:53:35;;;;;;;3.67;2.50;;;11.30;99.90;;;;;;5092707;28;20028;-54
2024/02/10 01:56:01;;;;;;;5.33;2.40;;;11.30;99.90;;;;;;5091571;28;20093;-54
2024/02/10 01:58:27;;;;;;;6.88;2.47;;;11.20;99.90;;;;;;5093148;28;20849;-53
2024/02/10 02:00:53;;;;;;;8.75;2.90;;;11.30;99.90;;;;;;5091931;28;20107;-51
2024/02/10 02:03:20;;;;;;;3.97;2.33;;;11.20;99.90;;;;;;5091156;28;20484;-53
2024/02/10 02:05:45;;;;;;;11.13;3.17;;;11.20;99.90;;;;;;5091776;28;20020;-53
2024/02/10 02:08:11;;;;;;;10.93;2.40;;;11.20;99.90;;;;;;5092406;28;20157;-53
2024/02/10 02:10:37;;;;;;;4.65;2.97;;;11.20;99.90;;;;;;5091486;28;20024;-53
2024/02/10 02:13:05;;;;;;;9.45;2.88;;;11.30;99.90;;;;;;5092859;28;20354;-51
2024/02/10 02:15:31;;;;;;;8.85;3.75;;;11.30;99.90;;;;;;5098716;28;20015;-53
2024/02/10 02:17:57;;;;;;;8.05;2.83;;;11.30;99.90;;;;;;5096696;28;20024;-53
2024/02/10 02:20:24;;;;;;;10.15;3.50;;;11.30;99.90;;;;;;5096667;28;20476;-54
2024/02/10 02:22:54;;;;;;;7.53;3.53;;;11.30;99.90;;;;;;5096731;28;20380;-54
2024/02/10 02:25:21;;;;;;;9.90;3.05;;;11.30;99.90;;;;;;5096694;28;20027;-54
2024/02/10 02:27:47;;;;;;;6.53;3.03;;;11.30;99.90;;;;;;5096797;28;20461;-54
2024/02/10 02:30:13;;;;;;;6.72;2.90;;;11.30;99.90;;;;;;5096835;28;20480;-54
2024/02/10 02:32:39;;;;;;;6.15;3.25;;;11.30;99.90;;;;;;5095224;28;20127;-54
2024/02/10 02:35:11;;;;;;;6.93;2.75;;;11.30;99.90;;;;;;5096334;28;20155;-55
2024/02/10 02:37:41;;;;;;;8.43;2.65;;;11.20;99.90;;;;;;5116930;28;20041;-55
2024/02/10 02:40:09;;;;;;;3.63;2.42;;;11.30;99.90;;;;;;5115822;28;20027;-56
2024/02/10 02:42:35;;;;;;;7.30;2.70;;;11.30;99.90;;;;;;5116824;28;20484;-39
2024/02/10 02:45:06;;;;;;;5.88;3.65;;;11.30;99.90;;;;;;5115074;28;20272;-40
2024/02/10 02:47:36;;;;;;;8.43;2.42;;;11.30;99.90;;;;;;5116641;28;20024;-39
2024/02/10 02:50:02;;;;;;;6.82;3.00;;;11.40;99.90;;;;;;5115744;28;20503;-40
2024/02/10 02:52:30;;;;;;;5.53;2.28;;;11.40;99.90;;;;;;5110717;28;20024;-40
2024/02/10 02:54:56;;;;;;;5.03;2.22;;;11.40;99.90;;;;;;5096103;28;20107;-39
2024/02/10 02:57:25;;;;;;;6.88;2.63;;;11.40;99.90;;;;;;5096003;28;20043;-39
2024/02/10 02:59:52;;;;;;;7.28;3.50;;;11.40;99.90;;;;;;5096061;28;20509;-40
2024/02/10 03:02:18;;;;;;;3.88;2.55;;;11.40;99.90;;;;;;5095752;28;20016;-41
2024/02/10 03:04:44;;;;;;;5.13;3.08;;;11.40;99.90;;;;;;5095792;28;20038;-40
2024/02/10 03:07:18;;;;;;;7.68;3.03;;;11.50;99.90;;;;;;5101532;28;20421;-40
2024/02/10 03:09:44;;;;;;;4.30;2.35;;;11.40;99.90;;;;;;5095844;28;20016;-40
2024/02/10 03:12:14;;;;;;;8.77;2.80;;;11.40;99.90;;;;;;5095482;28;20040;-44
2024/02/10 03:14:41;;;;;;;7.10;3.00;;;11.40;99.90;;;;;;5095737;28;20472;-43
2024/02/10 03:17:08;;;;;;;3.30;2.17;;;11.40;99.90;;;;;;5104852;28;20039;-39
2024/02/10 03:19:37;;;;;;;7.63;2.45;;;11.40;99.90;;;;;;5114815;28;20016;-40
2024/02/10 03:22:03;;;;;;;3.17;2.15;;;11.30;99.90;;;;;;5102102;28;20032;-41
2024/02/10 03:24:32;;;;;;;6.13;2.30;;;11.30;99.90;;;;;;5096995;28;20384;-42
2024/02/10 03:26:57;;;;;;;3.70;2.38;;;11.30;99.90;;;;;;5115909;28;20076;-40
2024/02/10 03:29:23;;;;;;;4.53;2.30;;;11.30;99.90;;;;;;5101006;28;20032;-39
2024/02/10 03:31:49;;;;;;;8.73;2.75;;;11.20;99.90;;;;;;5112927;28;20036;-41
2024/02/10 03:34:15;;;;;;;12.05;3.40;;;11.20;99.90;;;;;;5110831;28;20487;-38
2024/02/10 03:36:41;;;;;;;9.50;2.75;;;11.20;99.90;;;;;;5095162;28;20436;-39
2024/02/10 03:39:09;;;;;;;5.43;2.78;;;11.10;99.90;;;;;;5095599;28;20149;-41
2024/02/10 03:41:35;;;;;;;9.27;2.47;;;11.00;99.90;;;;;;5095489;28;20052;-38
2024/02/10 03:44:02;;;;;;;5.30;2.42;;;10.90;99.90;;;;;;5095223;28;20047;-41
2024/02/10 03:46:30;;;;;;;6.67;2.50;;;10.90;99.90;;;;;;5100408;28;20395;-44
2024/02/10 03:48:58;;;;;;;8.50;2.95;;;10.90;99.90;;;;;;5114500;28;20069;-40
2024/02/10 03:51:27;;;;;;;5.35;2.38;;;10.90;99.90;;;;;;5115354;28;20039;-41
2024/02/10 03:53:55;;;;;;;8.93;3.45;;;10.90;99.90;;;;;;5115263;28;20123;-42
2024/02/10 03:56:23;;;;;;;5.35;2.55;;;10.90;99.90;;;;;;5115705;28;20067;-52
2024/02/10 03:58:52;;;;;;;;;;;11.00;99.90;;;;;;5115986;28;20442;-52
2024/02/10 04:01:17;;;;;;;7.40;2.40;;;11.10;99.90;;;;;;5115264;28;19922;-54
2024/02/10 04:03:44;;;;;;;9.02;2.78;;;11.20;99.90;;;;;;5115136;28;20106;-53
2024/02/10 04:06:11;;;;;;;7.55;3.40;;;11.10;99.90;;;;;;5113323;28;20364;-53
2024/02/10 04:08:37;;;;;;;4.00;2.33;;;11.10;99.90;;;;;;5094962;28;20047;-55
2024/02/10 04:11:07;;;;;;;7.30;3.30;;;11.20;99.90;;;;;;5094576;28;20035;-51
2024/02/10 04:13:33;;;;;;;9.20;2.65;;;11.10;99.90;;;;;;5094577;28;20373;-50
2024/02/10 04:15:59;;;;;;;4.60;2.38;;;11.20;99.90;;;;;;5094645;28;20115;-54
2024/02/10 04:18:27;;;;;;;4.22;3.05;;;11.20;99.90;;;;;;5093215;28;20053;-54
2024/02/10 04:20:54;;;;;;;;;;;11.20;99.90;;;;;;5112375;28;20028;-54
2024/02/10 04:23:19;;;;;;;3.95;2.15;;;11.10;99.90;;;;;;5106585;28;20371;-54
2024/02/10 04:25:45;;;;;;;4.22;2.10;;;11.20;99.90;;;;;;5094415;28;20024;-54
2024/02/10 04:28:10;;;;;;;7.07;2.75;;;11.20;99.90;;;;;;5094369;28;20036;-53
2024/02/10 04:30:36;;;;;;;3.10;2.13;;;11.10;99.90;;;;;;5094261;28;20020;-55
2024/02/10 04:33:04;;;;;;;8.55;2.78;;;11.10;99.90;;;;;;5094168;28;20028;-53
2024/02/10 04:35:30;;;;;;;2.95;2.33;;;11.10;99.90;;;;;;5094059;28;20107;-54
2024/02/10 04:37:55;;;;;;;3.35;2.20;;;11.10;99.90;;;;;;5094021;28;20544;-49
2024/02/10 04:40:23;;;;;;;9.07;2.00;;;11.10;99.90;;;;;;5094055;28;20066;-54
2024/02/10 04:42:50;;;;;;;4.72;2.45;;;11.10;99.90;;;;;;5094097;28;20028;-54
2024/02/10 04:45:32;;;;;;;4.47;1.77;;;11.10;99.90;;;;;;5094039;28;20016;-54
2024/02/10 04:48:03;;;;;;;2.75;1.92;;;11.20;99.90;;;;;;5094273;28;20055;-54
2024/02/10 04:50:30;;;;;;;10.05;2.63;;;11.10;99.90;;;;;;5093845;28;20024;-54
2024/02/10 04:52:59;;;;;;;3.72;2.00;;;11.10;99.90;;;;;;5093787;28;20481;-55
2024/02/10 04:55:25;;;;;;;5.95;2.28;;;11.00;99.90;;;;;;5094606;28;20020;-53
2024/02/10 04:57:52;;;;;;;1.80;1.65;;;11.10;99.90;;;;;;5093758;28;20027;-53
2024/02/10 05:00:18;;;;;;;2.58;1.98;;;11.10;99.90;;;;;;5094855;28;20012;-51
2024/02/10 05:02:48;;;;;;;7.30;1.85;;;11.10;99.90;;;;;;5093636;28;20110;-53
2024/02/10 05:05:15;;;;;;;4.55;1.67;;;11.10;99.90;;;;;;5094014;28;20467;-45
2024/02/10 05:07:42;;;;;;;5.43;2.50;;;11.10;99.90;;;;;;5107513;28;20399;-40
2024/02/10 05:10:14;;;;;;;6.40;2.35;;;11.10;99.90;;;;;;5113917;28;20015;-44
2024/02/10 05:12:47;;;;;;;3.25;1.58;;;11.10;99.90;;;;;;5107080;28;20495;-40
2024/02/10 05:15:19;;;;;;;5.15;2.10;;;11.20;99.90;;;;;;5093762;28;20020;-39
2024/02/10 05:17:49;;;;;;;3.60;1.98;;;11.20;99.90;;;;;;5092205;28;20020;-41
2024/02/10 05:20:19;;;;;;;7.30;2.20;;;11.10;99.90;;;;;;5101340;28;20028;-40
2024/02/10 05:22:54;;;;;;;3.47;1.80;;;11.20;99.90;;;;;;5113709;28;20019;-39
2024/02/10 05:25:22;;;;;;;4.85;2.28;;;11.10;99.90;;;;;;5113884;28;20552;-40
2024/02/10 05:27:49;;;;;;;2.72;1.67;;;11.10;99.90;;;;;;5113652;28;20104;-42
2024/02/10 05:30:25;;;;;;;3.55;1.77;;;11.10;99.90;;;;;;5112734;28;20148;-39
2024/02/10 05:32:52;;;;;;;9.65;3.50;;;11.10;99.90;;;;;;5113731;28;20031;-40
2024/02/10 05:35:19;;;;;;;2.92;1.95;;;11.10;99.90;;;;;;5113216;28;20039;-39
2024/02/10 05:37:46;;;;;;;4.82;2.35;;;11.00;99.90;;;;;;5113770;28;20468;-39
2024/02/10 05:40:13;;;;;;;5.25;2.10;;;11.10;99.90;;;;;;5113670;28;20402;-39
2024/02/10 05:42:40;;;;;;;4.43;1.60;;;11.00;99.90;;;;;;5113704;28;20407;-39
2024/02/10 05:45:06;;;;;;;4.43;1.77;;;11.00;99.90;;;;;;5112450;28;20022;-42
2024/02/10 05:47:36;;;;;;;1.90;1.70;;;11.10;99.90;;;;;;5112484;28;20049;-40
2024/02/10 05:50:08;;;;;;;7.25;2.25;;;11.10;99.90;;;;;;5113215;28;20073;-40
2024/02/10 05:52:35;;;;;;;3.45;1.83;;;11.10;99.90;;;;;;5113297;28;20016;-39
2024/02/10 05:55:03;;;;;;;3.65;2.10;;;11.00;99.90;;;;;;5111931;28;20016;-39
2024/02/10 05:57:29;;;;;;;3.88;1.77;;;11.10;99.90;;;;;;5113523;28;20532;-41
2024/02/10 05:59:55;;;;;;;2.65;1.70;;;11.10;99.90;;;;;;5113199;28;20047;-42
2024/02/10 06:02:21;;;;;;;2.08;1.63;;;11.00;99.90;;;;;;5113256;28;20031;-40
2024/02/10 06:04:52;;;;;;;6.20;1.67;;;11.10;99.90;;;;;;5112222;28;20026;-41
2024/02/10 06:07:18;;;;;;;2.85;2.17;;;11.10;99.90;;;;;;5102626;28;20472;-41
2024/02/10 06:09:47;;;;;;;3.63;1.80;;;11.00;99.90;;;;;;5091577;28;20024;-41
2024/02/10 06:12:14;;;;;;;4.13;2.10;;;11.00;99.90;;;;;;5092990;28;20476;-41
2024/02/10 06:14:41;;;;;;;7.33;3.63;;;11.00;99.90;;;;;;5092762;28;20024;-40
2024/02/10 06:17:07;;;;;;;3.70;1.97;;;11.10;99.90;;;;;;5092878;28;20020;-51
2024/02/10 06:19:35;;;;;;;3.80;2.03;;;11.00;99.90;;;;;;5113039;28;20023;-53
2024/02/10 06:22:01;;;;;;;5.07;2.00;;;11.00;99.90;;;;;;5094644;28;20035;-54
2024/02/10 06:24:29;;;;;;;2.10;1.45;;;11.00;99.90;;;;;;5091941;28;20020;-53
2024/02/10 06:26:55;;;;;;;;;;;11.00;99.90;;;;;;5113359;28;20024;-54
2024/02/10 06:29:21;;;;;;;5.07;1.95;;;11.00;99.90;;;;;;5112964;28;19922;-55
2024/02/10 06:31:46;;;;;;;5.68;1.80;;;11.00;99.90;;;;;;5113225;28;20361;-54
2024/02/10 06:34:12;;;;;;;2.47;1.70;;;11.00;99.90;;;;;;5113112;28;20443;-55
2024/02/10 06:36:38;;;;;;;1.88;1.63;;;11.00;99.90;;;;;;5112724;28;20044;-53
2024/02/10 06:39:03;;;;;;;4.10;1.88;;;11.00;99.90;;;;;;5094442;28;20103;-54
2024/02/10 06:41:30;;;;;;;6.30;1.58;;;11.00;99.90;;;;;;5092763;28;20012;-53
2024/02/10 06:43:56;;;;;;;2.47;1.75;;;11.00;99.90;;;;;;5092755;28;20137;-54
2024/02/10 06:46:22;;;;;;;7.70;2.10;;;11.00;99.90;;;;;;5092466;28;20518;-54
2024/02/10 06:48:47;;;;;;;2.80;1.85;;;11.00;99.90;;;;;;5092241;28;20028;-55
2024/02/10 06:51:13;;;;;;;4.10;1.67;;;11.00;99.90;;;;;;5092401;28;20384;-54
2024/02/10 06:53:39;;;;;;;1.98;1.83;;;11.00;99.90;;;;;;5092303;28;20427;-54
2024/02/10 06:56:05;;;;;;;2.92;2.10;;;11.00;99.90;;;;;;5091639;28;20016;-54
2024/02/10 06:58:30;;;;;;;3.83;2.05;;;11.00;99.90;;;;;;5092355;28;20024;-57
2024/02/10 07:00:58;;;;;;;3.30;1.85;;;11.00;99.90;;;;;;5094479;28;20544;-56
2024/02/10 07:03:24;;;;;;;4.00;1.80;;;11.00;99.90;;;;;;5095939;28;20146;-55
2024/02/10 07:05:49;;;;;;;3.60;1.50;;;10.90;99.90;;;;;;5096214;28;20308;-54
2024/02/10 07:08:22;;;;;;;3.05;1.58;;;10.90;99.90;;;;;;5095794;28;20036;-51
2024/02/10 07:10:49;;;;;;;11.38;2.58;;;10.90;99.90;;;;;;5095709;28;20024;-53
2024/02/10 07:13:14;;;;;;;2.33;1.80;;;10.90;99.90;;;;;;5095236;28;20499;-51
2024/02/10 07:15:41;;;;;;;5.70;2.08;;;10.90;99.90;;;;;;5095786;28;20024;-54
2024/02/10 07:18:09;;;;;;;5.03;2.03;;;10.90;99.90;;;;;;5095980;28;20480;-55
2024/02/10 07:20:34;;;;;;;7.18;1.80;;;10.90;99.90;;;;;;5095997;28;20508;-52
2024/02/10 07:23:03;;;;;;;5.05;1.98;;;11.00;99.90;;;;;;5101161;28;20054;-54
2024/02/10 07:25:31;;;;;;;3.05;2.20;;;11.00;99.90;;;;;;5116284;28;20019;-54
2024/02/10 07:28:04;;;;;;;7.05;1.73;;;11.00;99.90;;;;;;5113558;28;20020;-54
2024/02/10 07:30:31;;;;;;;7.40;2.17;;;11.00;99.90;;;;;;5095779;28;20393;-55
2024/02/10 07:33:08;;;;;;;1.80;1.60;;;10.90;99.90;;;;;;5094089;28;20507;-54
2024/02/10 07:35:37;;;;;;;5.20;1.83;;;10.90;99.90;;;;;;5095362;28;20044;-54
2024/02/10 07:38:03;;;;;;;2.90;2.03;;;10.80;99.90;;;;;;5095559;28;20055;-54
2024/02/10 07:40:29;;;;;;;4.60;2.40;;;10.90;99.90;;;;;;5095264;28;20512;-56
2024/02/10 07:42:55;;;;;;;4.13;2.05;;;10.90;99.90;;;;;;5095262;28;20051;-57
2024/02/10 07:45:22;;;;;;;2.35;1.73;;;11.00;99.90;;;;;;5095738;28;20086;-51
2024/02/10 07:47:49;;;;;;;5.35;2.03;;;11.00;99.90;;;;;;5095165;28;20019;-54
2024/02/10 07:50:15;;;;;;;4.10;2.05;;;11.00;99.90;;;;;;5093784;28;20070;-54
2024/02/10 07:52:42;;;;;;;2.30;1.70;;;11.10;99.90;;;;;;5094983;28;20032;-54
2024/02/10 07:55:12;;;;;;;4.68;1.83;;;11.10;99.90;;;;;;5095187;28;20513;-55
2024/02/10 07:57:39;;;;;;;2.90;2.10;;;11.10;99.90;;;;;;5094988;28;20495;-41
2024/02/10 08:00:06;;;;;;;2.30;1.45;;;11.10;99.90;;;;;;5094906;28;20020;-40
2024/02/10 08:02:32;;;;;;;2.92;1.70;;;11.10;99.90;;;;;;5095620;28;20388;-40
2024/02/10 08:04:58;;;;;;;2.72;2.08;;;11.20;99.90;;;;;;5095092;28;20476;-40
2024/02/10 08:07:29;;;;;;;3.08;1.88;;;11.20;99.90;;;;;;5094634;28;20061;-40
2024/02/10 08:09:59;;;;;;;4.13;1.60;;;11.30;99.90;;;;;;5094808;28;20491;-41
2024/02/10 08:12:26;;;;;;;5.22;2.25;;;11.40;99.90;;;;;;5093552;28;20423;-40
2024/02/10 08:14:56;;;;;;;1.58;1.45;;;11.50;99.90;;;;;;5104567;28;20024;-40
2024/02/10 08:17:27;;;;;;;1.95;1.77;;;11.60;99.90;;;;;;5115233;28;20030;-40
2024/02/10 08:19:59;;;;;;;3.78;1.90;;;11.60;99.90;;;;;;5106199;28;20530;-40
2024/02/10 08:22:27;;;;;;;7.18;2.65;;;11.60;99.90;;;;;;5095110;28;20024;-40
2024/02/10 08:24:55;;;;;;;3.42;1.77;;;11.60;99.90;;;;;;5113519;28;20479;-39
2024/02/10 08:27:25;;;;;;;4.75;1.92;;;11.60;99.90;;;;;;5114988;28;20383;-43
2024/02/10 08:29:52;;;;;;;4.25;2.10;;;11.60;99.90;;;;;;5114559;28;20022;-40
2024/02/10 08:32:17;;;;;;;2.65;2.20;;;11.60;99.90;;;;;;5114626;28;20030;-39
2024/02/10 08:34:43;;;;;;;2.50;1.75;;;11.60;99.90;;;;;;5114510;28;20380;-42
2024/02/10 08:37:12;;;;;;;3.08;1.90;;;11.50;99.90;;;;;;5111733;27;20123;-42
2024/02/10 08:39:38;;;;;;;2.45;2.00;;;11.50;99.90;;;;;;5114513;28;20373;-40
2024/02/10 08:42:07;;;;;;;3.13;2.40;;;11.50;99.90;;;;;;5114430;28;20024;-42
2024/02/10 08:44:33;;;;;;;2.53;1.88;;;11.40;99.90;;;;;;5114683;27;20391;-41
2024/02/10 08:47:05;;;;;;;3.28;2.00;;;11.50;99.90;;;;;;5114293;28;20031;-43
2024/02/10 08:49:37;;;;;;;5.78;2.28;;;11.50;99.90;;;;;;5114526;28;20032;-40
2024/02/10 08:52:07;;;;;;;5.32;2.65;;;11.50;99.90;;;;;;5114585;28;20073;-39
2024/02/10 08:54:35;;;;;;;9.30;2.47;;;11.50;99.90;;;;;;5113491;28;20031;-38
2024/02/10 08:57:02;;;;;;;3.47;2.03;;;11.50;99.90;;;;;;5114087;28;20042;-39
2024/02/10 08:59:31;;;;;;;4.57;2.38;;;11.50;99.90;;;;;;5114293;28;20414;-40
2024/02/10 09:02:04;;;;;;;4.75;2.42;;;11.50;99.90;;;;;;5112688;28;20064;-43
2024/02/10 09:04:30;;;;;;;3.22;2.05;;;11.60;99.90;;;;;;5114342;28;20108;-40
2024/02/10 09:07:00;;;;;;;6.90;3.25;;;11.70;99.90;;;;;;5106211;28;20035;-40
2024/02/10 09:09:30;;;;;;;7.10;2.25;;;11.80;99.90;;;;;;5093914;28;20020;-39
2024/02/10 09:11:56;;;;;;;3.85;1.77;;;11.80;99.90;;;;;;5093729;28;20111;-39
2024/02/10 09:14:22;;;;;;;3.63;2.90;;;11.80;99.90;;;;;;5093686;28;20535;-38
2024/02/10 09:16:48;;;;;;;5.40;2.30;;;11.90;99.90;;;;;;5093271;28;20024;-38
2024/02/10 09:19:16;;;;;;;6.22;2.83;;;11.90;99.90;;;;;;5093228;28;20391;-40
2024/02/10 09:21:45;;;;;;;4.65;2.95;;;11.90;99.90;;;;;;5093352;28;20369;-40
2024/02/10 09:24:13;;;;;;;4.03;2.35;;;12.00;99.90;;;;;;5108234;28;20034;-39
2024/02/10 09:26:43;;;;;;;6.05;3.15;;;12.10;99.90;;;;;;5113688;28;20023;-39
2024/02/10 09:29:09;;;;;;;3.40;2.38;;;12.20;99.90;;;;;;5094458;28;20055;-42
2024/02/10 09:31:34;;;;;;;3.53;2.10;;;12.30;99.90;;;;;;5093216;28;20059;-38
2024/02/10 09:34:04;;;;;;;4.07;2.92;;;12.30;99.90;;;;;;5093083;28;20035;-41
2024/02/10 09:36:32;;;;;;;2.42;2.00;;;12.30;99.90;;;;;;5093063;28;20048;-40
2024/02/10 09:38:57;;;;;;;5.68;2.65;;;12.40;99.90;;;;;;5093415;28;20028;-40
2024/02/10 09:41:24;;;;;;;3.30;2.47;;;12.40;99.90;;;;;;5093088;28;20491;-38
2024/02/10 09:43:50;;;;;;;2.67;2.05;;;12.40;99.90;;;;;;5093086;28;20064;-39
2024/02/10 09:46:15;;;;;;;3.42;2.15;;;12.40;99.90;;;;;;5093370;28;20113;-53
2024/02/10 09:48:50;;;;;;;2.45;2.17;;;12.40;99.90;;;;;;5093152;28;20416;-55
2024/02/10 09:51:16;;;;;;;4.40;2.38;;;12.40;99.90;;;;;;5092890;28;20024;-52
2024/02/10 09:53:42;;;;;;;4.32;3.05;;;12.40;99.90;;;;;;5092871;28;20115;-54
2024/02/10 09:56:14;;;;;;;7.68;2.50;;;12.40;99.90;;;;;;5094994;28;20501;-55
2024/02/10 09:58:46;;;;;;;4.57;2.90;;;12.50;99.90;;;;;;5103142;28;20468;-52
2024/02/10 10:01:16;;;;;;;4.28;2.55;;;12.50;99.90;;;;;;5112260;28;20113;-54
2024/02/10 10:03:42;;;;;;;3.30;2.40;;;12.50;99.90;;;;;;5113438;28;20484;-54
2024/02/10 10:06:11;;;;;;;3.50;2.50;;;12.60;99.90;;;;;;5110820;28;20068;-53
2024/02/10 10:08:41;;;;;;;5.25;2.13;;;12.60;99.90;;;;;;5093339;28;20039;-52
2024/02/10 10:11:09;;;;;;;4.28;2.35;;;12.60;99.90;;;;;;5092792;28;20063;-54
2024/02/10 10:13:37;;;;;;;2.55;2.35;;;12.70;99.90;;;;;;5092705;28;20496;-54
2024/02/10 10:16:06;;;;;;;3.55;2.35;;;12.70;99.90;;;;;;5094618;28;20502;-51
2024/02/10 10:18:35;;;;;;;4.53;3.15;;;12.70;99.90;;;;;;5102656;28;20026;-55
2024/02/10 10:21:04;;;;;;;2.92;2.13;;;12.80;99.90;;;;;;5097643;28;20047;-52
2024/02/10 10:23:33;;;;;;;4.30;2.33;;;12.80;99.90;;;;;;5096913;28;20023;-54
2024/02/10 10:26:00;;;;;;;4.40;2.58;;;12.80;99.90;;;;;;5102099;28;20035;-54
2024/02/10 10:28:25;;;;;;;3.92;2.35;;;12.90;99.90;;;;;;5111784;28;20396;-52
2024/02/10 10:30:52;;;;;;;2.42;1.90;;;13.00;99.90;;;;;;5112873;28;20024;-54
2024/02/10 10:33:20;;;;;;;7.18;2.88;;;13.00;99.90;;;;;;5112724;28;20066;-55
2024/02/10 10:35:47;;;;;;;15.27;3.55;;;13.00;99.90;;;;;;5114793;27;20516;-54
2024/02/10 10:38:18;;;;;;;4.13;1.90;;;13.20;99.90;;;;;;5116947;28;20111;-55
2024/02/10 10:40:45;;;;;;;2.83;2.55;;;13.20;99.90;;;;;;5114923;28;20036;-54
2024/02/10 10:43:11;;;;;;;7.68;2.50;;;13.30;99.90;;;;;;5117070;28;20509;-53
2024/02/10 10:45:38;;;;;;;5.93;2.70;;;13.30;99.90;;;;;;5111842;28;20498;-52
2024/02/10 10:48:07;;;;;;;4.85;3.03;;;13.40;99.90;;;;;;5105648;28;20027;-52
2024/02/10 10:50:34;;;;;;;3.60;3.25;;;13.50;99.90;;;;;;5116657;28;20035;-55
2024/02/10 10:53:05;;;;;;;5.45;3.00;;;13.40;99.90;;;;;;5106413;28;20477;-54
2024/02/10 10:55:48;;;;;;;7.03;3.15;;;13.50;99.90;;;;;;5114544;28;20587;-55
2024/02/10 10:58:17;;;;;;;3.50;3.05;;;13.60;99.90;;;;;;5114494;28;20543;-54
2024/02/10 11:00:46;;;;;;;4.72;2.67;;;13.70;99.90;;;;;;5112438;28;20471;-54
2024/02/10 11:03:17;;;;;;;4.65;2.33;;;13.70;99.90;;;;;;5107476;28;20027;-52
2024/02/10 11:05:43;;;;;;;3.15;2.25;;;13.80;99.90;;;;;;5116675;28;20111;-53
2024/02/10 11:08:13;;;;;;;3.63;2.28;;;13.80;99.90;;;;;;5103136;28;20530;-52
2024/02/10 11:10:40;;;;;;;4.00;2.58;;;13.90;99.90;;;;;;5100165;28;20020;-54
2024/02/10 11:13:07;;;;;;;5.70;2.85;;;14.00;99.90;;;;;;5095478;28;20024;-53
2024/02/10 11:15:40;;;;;;;4.90;3.08;;;14.00;99.90;;;;;;5099580;28;20080;-53
2024/02/10 11:18:15;;;;;;;6.28;2.42;;;14.10;99.90;;;;;;5095956;28;20028;-54
2024/02/10 11:20:41;;;;;;;4.63;2.65;;;14.10;99.90;;;;;;5095654;28;20020;-54
2024/02/10 11:23:18;;;;;;;6.20;2.78;;;14.10;99.90;;;;;;5110983;28;20030;-53
2024/02/10 11:25:43;;;;;;;6.95;2.20;;;14.10;99.90;;;;;;5101595;28;20512;-53
2024/02/10 11:28:23;;;;;;;2.15;1.95;;;14.20;99.90;;;;;;5095673;28;20065;-53
2024/02/10 11:30:49;;;;;;;4.65;2.30;;;14.20;99.90;;;;;;5095289;28;20024;-52
2024/02/10 11:33:17;;;;;;;4.00;2.60;;;14.20;99.90;;;;;;5095359;28;20400;-54
2024/02/10 11:35:46;;;;;;;4.65;2.58;;;14.10;99.90;;;;;;5093873;28;20037;-57
2024/02/10 11:38:13;;;;;;;4.78;2.75;;;14.10;99.90;;;;;;5105475;28;20752;-52
2024/02/10 11:40:40;;;;;;;6.03;2.23;;;14.20;99.90;;;;;;5109453;28;20372;-56
2024/02/10 11:43:10;;;;;;;4.70;2.57;;;14.20;99.90;;;;;;5095546;28;20051;-53
2024/02/10 11:45:38;;;;;;;7.68;2.92;;;14.30;99.90;;;;;;5093586;28;20532;-52
2024/02/10 11:48:04;;;;;;;4.47;2.42;;;14.30;99.90;;;;;;5093588;28;20031;-52
2024/02/10 11:50:30;;;;;;;4.47;2.72;;;14.30;99.90;;;;;;5099267;28;20442;-52
2024/02/10 11:52:59;;;;;;;4.75;2.67;;;14.30;99.90;;;;;;5105845;28;20106;-53
2024/02/10 11:55:26;;;;;;;5.63;2.60;;;14.30;99.90;;;;;;5113415;27;20488;-54
2024/02/10 11:57:52;;;;;;;7.72;3.08;;;14.30;99.90;;;;;;5095035;28;20476;-53
2024/02/10 12:00:19;;;;;;;7.28;2.50;;;14.30;99.90;;;;;;5103864;28;20103;-54
2024/02/10 12:02:47;;;;;;;4.20;2.80;;;14.30;99.90;;;;;;5096005;28;20017;-51
2024/02/10 12:05:13;;;;;;;3.28;2.58;;;14.50;99.90;;;;;;5093389;28;20028;-53
2024/02/10 12:07:39;;;;;;;5.50;2.50;;;14.60;99.90;;;;;;5107263;28;20027;-54
2024/02/10 12:10:11;;;;;;;6.90;3.10;;;14.50;99.90;;;;;;5113054;28;20032;-54
2024/02/10 12:12:37;;;;;;;5.22;2.90;;;14.50;99.90;;;;;;5111731;28;20118;-56
2024/02/10 12:15:03;;;;;;;3.05;2.65;;;14.50;99.90;;;;;;5109582;28;20119;-54
2024/02/10 12:17:35;;;;;;;5.13;3.70;;;14.50;99.90;;;;;;5094291;28;20050;-53
2024/02/10 12:20:01;;;;;;;7.13;2.92;;;14.50;99.90;;;;;;5094776;28;20153;-52
2024/02/10 12:22:27;;;;;;;4.45;3.17;;;14.50;99.90;;;;;;5098526;28;20514;-54
2024/02/10 12:24:53;;;;;;;6.07;3.10;;;14.40;99.90;;;;;;5114532;28;20483;-53
2024/02/10 12:27:25;;;;;;;5.00;3.10;;;14.30;99.90;;;;;;5099168;28;20414;-53
2024/02/10 12:29:51;;;;;;;4.63;3.03;;;14.20;99.90;;;;;;5094046;28;20089;-53
2024/02/10 12:32:17;;;;;;;6.93;2.90;;;14.20;99.90;;;;;;5094212;28;20540;-53
2024/02/10 12:34:43;;;;;;;10.15;3.10;;;14.30;99.90;;;;;;5107280;28;20027;-52
2024/02/10 12:37:10;;;;;;;3.15;2.45;;;14.40;99.90;;;;;;5114344;28;20059;-55
2024/02/10 12:39:36;;;;;;;7.72;3.60;;;14.30;99.90;;;;;;5114021;28;20532;-52
2024/02/10 12:42:02;;;;;;;6.43;3.20;;;14.30;99.90;;;;;;5102811;27;20020;-53
2024/02/10 12:44:28;;;;;;;6.85;3.28;;;14.30;99.90;;;;;;5114367;28;20429;-51
2024/02/10 12:46:53;;;;;;;6.75;3.63;;;14.30;99.90;;;;;;5098135;27;20036;-53
2024/02/10 12:49:20;;;;;;;6.90;3.92;;;14.30;99.90;;;;;;5117616;27;20020;-53
2024/02/10 12:51:47;;;;;;;14.65;3.83;;;14.30;99.90;;;;;;5093847;28;20028;-52